Time;durP1;ratioP1;P1;durP2;ratioP2;P2;SDS_P1;SDS_P2;PMS_P1;PMS_P2;Temp;Humidity;BMP_temperature;BMP_pressure;BME280_temperature;BME280_humidity;BME280_pressure;Samples;Min_cycle;Max_cycle;Signal;HPM_P1;HPM_P2
2023/01/24 00:00:52;;;;;;;34.42;18.80;;;;;;;-2.59;97.74;103318.16;5091489;28;20361;-69
2023/01/24 00:03:18;;;;;;;37.55;18.55;;;;;;;-2.60;97.63;103326.94;5091553;28;20044;-68
2023/01/24 00:05:47;;;;;;;37.15;18.75;;;;;;;-2.62;97.61;103333.94;5091979;28;20040;-68
2023/01/24 00:08:19;;;;;;;37.72;17.60;;;;;;;-2.65;96.69;103319.09;5092624;28;20050;-68
2023/01/24 00:10:46;;;;;;;39.20;20.00;;;;;;;-2.66;97.73;103324.34;5091713;28;20055;-68
2023/01/24 00:13:14;;;;;;;38.72;18.65;;;;;;;-2.66;97.56;103326.97;5092612;28;20066;-68
2023/01/24 00:15:41;;;;;;;40.58;18.92;;;;;;;-2.59;96.80;103324.28;5087084;28;20564;-68
2023/01/24 00:18:07;;;;;;;37.78;18.98;;;;;;;-2.69;96.29;103319.09;5092527;28;20040;-69
2023/01/24 00:20:34;;;;;;;39.33;18.63;;;;;;;-2.77;96.59;103326.16;5092499;28;20046;-68
2023/01/24 00:23:00;;;;;;;38.38;18.65;;;;;;;-2.78;97.33;103320.06;5092373;28;20044;-69
2023/01/24 00:25:27;;;;;;;42.97;20.13;;;;;;;-2.72;96.92;103327.00;5093116;28;20071;-67
2023/01/24 00:27:54;;;;;;;42.05;18.55;;;;;;;-2.79;97.08;103327.94;5091591;28;20063;-69
2023/01/24 00:30:20;;;;;;;40.63;19.63;;;;;;;-2.79;97.32;103335.81;5093229;28;20056;-68
2023/01/24 00:32:47;;;;;;;39.92;19.90;;;;;;;-2.72;98.11;103332.25;5091050;28;20052;-68
2023/01/24 00:35:13;;;;;;;42.92;20.17;;;;;;;-2.72;97.79;103332.25;5090507;28;20047;-69
2023/01/24 00:37:40;;;;;;;41.75;19.65;;;;;;;-2.65;96.63;103326.06;5091516;28;20392;-67
2023/01/24 00:40:08;;;;;;;42.83;20.17;;;;;;;-2.67;96.76;103319.97;5092582;28;20580;-67
2023/01/24 00:42:35;;;;;;;43.50;20.13;;;;;;;-2.69;96.81;103322.59;5091440;28;20064;-68
2023/01/24 00:45:01;;;;;;;44.00;20.38;;;;;;;-2.69;96.69;103326.97;5092722;28;20040;-68
2023/01/24 00:47:27;;;;;;;41.90;19.42;;;;;;;-2.66;95.80;103326.97;5091188;28;20409;-69
2023/01/24 00:49:54;;;;;;;42.72;20.70;;;;;;;-2.74;95.30;103324.41;5092092;28;20044;-69
2023/01/24 00:52:21;;;;;;;43.15;20.33;;;;;;;-2.78;96.07;103330.56;5091595;28;20044;-68
2023/01/24 00:54:47;;;;;;;45.83;20.90;;;;;;;-2.79;95.97;103334.03;5091139;28;20071;-70
2023/01/24 00:57:14;;;;;;;46.28;21.80;;;;;;;-2.84;96.29;103327.97;5090995;28;20496;-68
2023/01/24 00:59:41;;;;;;;41.47;20.25;;;;;;;-2.77;95.71;103327.03;5092169;28;20393;-68
2023/01/24 01:02:07;;;;;;;43.70;20.05;;;;;;;-2.80;96.06;103324.44;5093119;28;20128;-68
2023/01/24 01:04:34;;;;;;;40.08;20.35;;;;;;;-2.76;96.01;103320.91;5093792;28;20445;-69
2023/01/24 01:07:01;;;;;;;45.00;21.35;;;;;;;-2.84;94.93;103318.31;5093360;28;20356;-69
2023/01/24 01:09:27;;;;;;;44.25;21.08;;;;;;;-2.87;94.87;103328.84;5093366;28;20495;-68
2023/01/24 01:11:54;;;;;;;39.28;18.40;;;;;;;-2.96;94.72;103323.66;5092836;28;20048;-69
2023/01/24 01:14:20;;;;;;;36.70;17.52;;;;;;;-2.96;94.84;103318.41;5092192;28;20048;-69
2023/01/24 01:16:47;;;;;;;42.75;20.40;;;;;;;-3.01;94.38;103324.56;5092541;28;20416;-69
2023/01/24 01:19:13;;;;;;;40.15;20.15;;;;;;;-2.98;94.07;103325.41;5092599;28;20047;-69
2023/01/24 01:21:39;;;;;;;37.15;18.15;;;;;;;-2.93;93.83;103334.13;5092730;28;20062;-70
2023/01/24 01:24:06;;;;;;;41.08;19.55;;;;;;;-2.90;93.89;103333.25;5092356;28;20067;-67
2023/01/24 01:26:33;;;;;;;40.65;18.92;;;;;;;-2.92;93.49;103342.91;5091440;28;20487;-69
2023/01/24 01:29:00;;;;;;;35.47;18.90;;;;;;;-2.90;93.01;103338.50;5092476;28;20102;-70
2023/01/24 01:31:26;;;;;;;33.60;17.83;;;;;;;-2.96;92.56;103334.19;5091346;28;20040;-69
2023/01/24 01:33:53;;;;;;;36.13;18.02;;;;;;;-2.97;92.98;103329.78;5091497;28;20044;-70
2023/01/24 01:36:20;;;;;;;34.88;17.40;;;;;;;-3.03;92.66;103332.47;5091325;28;20036;-70
2023/01/24 01:38:46;;;;;;;30.80;17.30;;;;;;;-3.06;92.62;103338.59;5092023;28;20403;-67
2023/01/24 01:41:13;;;;;;;34.25;17.33;;;;;;;-3.10;93.26;103343.84;5091291;28;20044;-68
2023/01/24 01:44:37;;;;;;;33.78;17.70;;;;;;;-3.15;92.72;103343.88;5092503;28;20451;-68
2023/01/24 01:46:29;;;;;;;28.80;16.25;;;;;;;-3.20;92.68;103340.44;5091529;28;20040;-68
2023/01/24 01:49:02;;;;;;;38.05;18.05;;;;;;;-3.11;93.60;103343.00;5091903;28;20170;-69
2023/01/24 01:51:41;;;;;;;35.72;17.95;;;;;;;-3.02;93.55;103343.84;5091383;28;20070;-71
2023/01/24 01:54:14;;;;;;;39.17;18.17;;;;;;;-2.99;94.22;103346.44;5091892;28;20036;-68
2023/01/24 01:56:46;;;;;;;31.42;16.27;;;;;;;-3.04;92.54;103349.09;5092466;28;20050;-68
2023/01/24 01:59:19;;;;;;;29.30;15.60;;;;;;;-3.00;91.96;103336.81;5093114;28;20407;-68
2023/01/24 02:01:49;;;;;;;31.75;14.93;;;;;;;-3.04;90.80;103341.22;5091575;28;20123;-68
2023/01/24 02:04:28;;;;;;;28.63;14.57;;;;;;;-3.03;90.65;103348.22;5091129;28;20471;-68
2023/01/24 02:07:43;;;;;;;26.80;14.98;;;;;;;-3.08;91.25;103347.34;5092122;28;20059;-69
2023/01/24 02:10:10;;;;;;;29.45;14.80;;;;;;;-3.10;90.36;103346.47;5074316;28;20131;-70
2023/01/24 02:12:40;;;;;;;27.35;14.13;;;;;;;-3.13;91.22;103344.75;5092063;28;20408;-68
2023/01/24 02:18:00;;;;;;;29.77;14.18;;;;;;;-3.26;90.76;103355.34;5090912;28;20074;-70
2023/01/24 02:20:38;;;;;;;25.05;13.57;;;;;;;-3.28;90.98;103350.94;5091547;28;20106;-69
2023/01/24 02:23:24;;;;;;;26.25;12.95;;;;;;;-3.28;91.63;103350.06;5092093;28;20059;-69
2023/01/24 02:26:11;;;;;;;25.38;14.23;;;;;;;-3.32;92.15;103345.72;5092034;28;20066;-69
2023/01/24 02:28:40;;;;;;;28.70;13.68;;;;;;;-3.24;91.11;103350.94;5091290;28;20406;-66
2023/01/24 02:31:06;;;;;;;25.35;13.32;;;;;;;-3.28;92.13;103356.19;5091658;28;20068;-69
2023/01/24 02:33:33;;;;;;;22.48;13.27;;;;;;;-3.16;92.45;103357.03;5092768;28;20036;-69
2023/01/24 02:36:21;;;;;;;25.35;13.88;;;;;;;-3.16;92.62;103357.03;5091602;28;20040;-69
2023/01/24 02:38:54;;;;;;;25.40;12.70;;;;;;;-3.17;92.37;103356.16;5092259;28;20052;-69
2023/01/24 02:41:28;;;;;;;22.13;12.77;;;;;;;-3.08;91.24;103356.09;5091629;28;20044;-69
2023/01/24 02:43:58;;;;;;;21.45;13.18;;;;;;;-3.23;92.08;103356.19;5091867;28;20048;-69
2023/01/24 02:46:24;;;;;;;22.95;12.57;;;;;;;-3.14;90.96;103355.25;5091483;28;20051;-69
2023/01/24 02:48:51;;;;;;;21.45;11.63;;;;;;;-3.08;91.56;103358.72;5090823;28;20055;-69
2023/01/24 02:54:22;;;;;;;21.90;13.02;;;;;;;-3.14;90.11;103347.38;5008246;28;20410;-68
2023/01/24 02:59:34;;;;;;;21.20;12.10;;;;;;;-3.12;91.00;103351.75;5009464;28;20057;-69
2023/01/24 03:02:00;;;;;;;22.00;12.25;;;;;;;-3.16;91.02;103359.66;5009454;28;20498;-69
2023/01/24 03:04:27;;;;;;;21.40;12.80;;;;;;;-3.20;91.05;103350.94;5015319;28;20049;-69
2023/01/24 03:06:53;;;;;;;20.05;11.65;;;;;;;-3.19;90.54;103350.03;5028929;28;20052;-69
2023/01/24 03:09:33;;;;;;;21.45;12.50;;;;;;;-3.30;90.55;103344.84;5028271;28;20426;-69
2023/01/24 03:36:47;;;;;;;17.77;10.25;;;;;;;-3.15;89.26;103353.53;5093578;28;20040;-68
2023/01/24 03:40:00;;;;;;;22.58;10.70;;;;;;;-3.15;88.40;103350.91;5094533;28;20488;-67
2023/01/24 03:42:00;;;;;;;20.52;10.85;;;;;;;-3.28;88.08;103350.06;5079253;28;20044;-69
2023/01/24 03:44:28;;;;;;;18.17;11.85;;;;;;;-3.54;88.83;103343.16;5094212;28;20051;-69
2023/01/24 03:46:54;;;;;;;18.52;10.57;;;;;;;-3.72;89.79;103340.63;5094205;28;20050;-69
2023/01/24 03:52:25;;;;;;;24.58;11.90;;;;;;;-3.68;90.23;103339.72;5093755;28;20389;-68
2023/01/24 03:54:52;;;;;;;22.30;11.27;;;;;;;-3.60;89.46;103337.06;5093523;28;20050;-67
2023/01/24 03:57:18;;;;;;;21.58;11.63;;;;;;;-3.64;88.94;103343.22;5093290;28;20048;-68
2023/01/24 03:59:45;;;;;;;21.98;11.77;;;;;;;-3.60;88.84;103339.69;5095511;28;20150;-68
2023/01/24 04:02:11;;;;;;;20.20;11.13;;;;;;;-3.61;88.75;103344.06;5093476;28;20511;-68
2023/01/24 04:07:23;;;;;;;17.50;10.65;;;;;;;-3.58;88.75;103340.56;5094286;28;20064;-68
2023/01/24 04:09:52;;;;;;;20.85;11.38;;;;;;;-3.58;87.90;103337.94;5094886;28;20048;-67
2023/01/24 04:12:20;;;;;;;20.63;12.20;;;;;;;-3.61;88.42;103338.81;5094192;28;20040;-70
2023/01/24 04:14:46;;;;;;;19.25;11.00;;;;;;;-3.55;88.18;103340.53;5094723;28;20419;-69
2023/01/24 04:17:13;;;;;;;20.08;11.18;;;;;;;-3.66;88.36;103339.69;5094272;28;20036;-68
2023/01/24 04:19:39;;;;;;;19.50;10.82;;;;;;;-3.77;88.77;103332.72;5094452;28;20420;-69
2023/01/24 04:22:06;;;;;;;20.52;11.20;;;;;;;-3.81;88.55;103331.00;5094061;28;20040;-68
2023/01/24 04:24:32;;;;;;;20.25;10.75;;;;;;;-3.93;89.24;103331.03;5093318;28;20048;-68
2023/01/24 04:26:59;;;;;;;22.10;12.13;;;;;;;-3.94;89.52;103341.50;5093439;28;20104;-68
2023/01/24 04:29:25;;;;;;;22.90;10.88;;;;;;;-3.96;89.17;103346.78;5093704;28;20451;-69
2023/01/24 04:31:52;;;;;;;21.65;11.07;;;;;;;-3.92;89.25;103343.28;5094006;28;20048;-68
2023/01/24 04:34:19;;;;;;;18.02;11.48;;;;;;;-3.85;89.33;103345.00;5092867;28;20070;-68
2023/01/24 04:36:45;;;;;;;18.98;11.35;;;;;;;-3.80;88.90;103345.84;5093627;28;20050;-68
2023/01/24 04:39:12;;;;;;;17.95;11.45;;;;;;;-3.79;87.94;103345.00;5093771;28;20047;-67
2023/01/24 04:41:38;;;;;;;22.63;10.23;;;;;;;-3.74;87.87;103336.25;5094422;28;20131;-68
2023/01/24 04:44:05;;;;;;;18.73;11.23;;;;;;;-3.75;88.54;103332.75;5093730;28;20377;-69
2023/01/24 04:46:31;;;;;;;19.27;11.30;;;;;;;-3.74;87.54;103325.75;5094280;28;20047;-69
2023/01/24 04:48:58;;;;;;;21.35;11.48;;;;;;;-3.75;87.89;103332.75;5094519;28;20065;-68
2023/01/24 04:51:24;;;;;;;20.77;12.52;;;;;;;-3.69;88.53;103329.22;5094568;28;20055;-66
2023/01/24 04:53:51;;;;;;;20.00;11.60;;;;;;;-3.66;87.91;103326.59;5095570;28;20044;-68
2023/01/24 04:56:17;;;;;;;24.40;11.95;;;;;;;-3.62;88.28;103325.69;5076307;28;20043;-67
2023/01/24 04:58:44;;;;;;;19.30;11.23;;;;;;;-3.64;87.68;103323.09;5095738;28;20048;-67
2023/01/24 05:01:10;;;;;;;21.17;11.32;;;;;;;-3.58;87.14;103322.22;5095137;28;20047;-69
2023/01/24 05:03:37;;;;;;;21.13;11.35;;;;;;;-3.60;88.42;103332.69;5094285;28;20044;-68
2023/01/24 05:06:04;;;;;;;23.52;12.48;;;;;;;-3.52;87.96;103330.03;5094276;28;20472;-68
2023/01/24 05:08:30;;;;;;;20.33;11.35;;;;;;;-3.50;87.60;103330.03;5094973;28;20074;-66
2023/01/24 05:11:02;;;;;;;19.25;11.02;;;;;;;-3.51;88.03;103329.19;5083770;28;20040;-69
2023/01/24 05:13:28;;;;;;;22.55;11.70;;;;;;;-3.49;88.19;103326.53;5095489;28;20493;-66
2023/01/24 05:15:55;;;;;;;22.05;12.07;;;;;;;-3.47;87.34;103325.66;5095328;28;20043;-68
2023/01/24 05:18:21;;;;;;;21.25;11.63;;;;;;;-3.49;87.56;103322.16;5096391;28;20044;-69
2023/01/24 05:20:48;;;;;;;20.63;12.25;;;;;;;-3.47;87.26;103320.41;5093935;28;20506;-68
2023/01/24 05:23:14;;;;;;;21.33;12.05;;;;;;;-3.48;87.31;103328.28;5092855;28;20048;-67
2023/01/24 05:25:41;;;;;;;22.52;12.55;;;;;;;-3.46;86.96;103327.41;5093082;28;20048;-69
2023/01/24 05:28:07;;;;;;;19.92;11.73;;;;;;;-3.53;87.55;103330.91;5092349;28;20407;-67
2023/01/24 05:30:34;;;;;;;19.02;12.48;;;;;;;-3.48;86.72;103331.78;5090927;28;20490;-69
2023/01/24 05:33:01;;;;;;;47.55;13.65;;;;;;;-3.45;87.20;103323.00;5090917;28;20438;-69
2023/01/24 05:35:27;;;;;;;22.48;12.88;;;;;;;-3.56;87.08;103333.56;5080959;28;20484;-69
2023/01/24 05:37:55;;;;;;;21.80;12.38;;;;;;;-3.54;87.74;103334.44;5090682;28;20063;-68
2023/01/24 05:40:21;;;;;;;21.98;12.10;;;;;;;-3.50;86.96;103336.16;5091082;28;20044;-68
2023/01/24 05:42:48;;;;;;;19.30;11.93;;;;;;;-3.47;86.52;103333.53;5090783;28;20044;-68
2023/01/24 05:45:14;;;;;;;22.10;12.13;;;;;;;-3.52;87.31;103332.66;5090546;28;20042;-67
2023/01/24 05:47:41;;;;;;;25.63;13.27;;;;;;;-3.54;87.49;103337.06;5090626;28;20050;-69
2023/01/24 05:50:08;;;;;;;21.38;12.02;;;;;;;-3.50;87.41;103338.78;5090668;28;20054;-68
2023/01/24 05:52:34;;;;;;;25.70;12.90;;;;;;;-3.48;87.46;103339.66;5090410;28;20040;-67
2023/01/24 05:55:01;;;;;;;23.25;12.70;;;;;;;-3.55;87.27;103345.78;5090623;28;20040;-68
2023/01/24 05:57:28;;;;;;;18.98;12.05;;;;;;;-3.47;86.84;103345.78;5090830;28;20068;-69
2023/01/24 05:59:54;;;;;;;19.95;11.48;;;;;;;-3.54;87.15;103345.78;5090578;28;20047;-68
2023/01/24 06:02:21;;;;;;;20.33;12.32;;;;;;;-3.47;87.06;103348.41;5090445;28;20399;-68
2023/01/24 06:04:48;;;;;;;20.70;12.70;;;;;;;-3.47;86.89;103354.53;5090154;28;20438;-69
2023/01/24 06:07:14;;;;;;;25.50;13.15;;;;;;;-3.47;86.63;103357.16;5089926;28;20403;-68
2023/01/24 06:09:40;;;;;;;23.58;13.25;;;;;;;-3.54;86.72;103360.66;5090356;28;20044;-68
2023/01/24 06:12:07;;;;;;;22.05;11.25;;;;;;;-3.49;86.40;103358.91;5090608;28;20051;-68
2023/01/24 06:14:34;;;;;;;23.15;12.82;;;;;;;-3.48;87.32;103362.38;5089516;28;20044;-67
2023/01/24 06:17:00;;;;;;;24.27;12.65;;;;;;;-3.49;86.41;103358.03;5089661;28;20040;-67
2023/01/24 06:19:27;;;;;;;22.73;12.50;;;;;;;-3.39;85.46;103370.25;5090406;28;20040;-68
2023/01/24 06:22:09;;;;;;;22.90;11.90;;;;;;;-3.48;85.76;103360.66;5090078;28;20040;-68
2023/01/24 06:24:36;;;;;;;22.38;11.95;;;;;;;-3.52;85.76;103364.16;5089086;28;20047;-67
2023/01/24 06:27:03;;;;;;;22.13;12.32;;;;;;;-3.44;85.54;103369.41;5090749;28;20036;-68
2023/01/24 06:29:30;;;;;;;24.48;13.02;;;;;;;-3.47;86.24;103372.91;5093169;28;20051;-68
2023/01/24 06:32:27;;;;;;;24.33;12.40;;;;;;;-3.40;86.04;103374.63;5092132;28;20094;-69
2023/01/24 06:34:57;;;;;;;23.73;12.18;;;;;;;-3.48;86.18;103376.41;5092378;28;20127;-68
2023/01/24 06:37:37;;;;;;;21.20;12.32;;;;;;;-3.53;86.83;103372.91;5091809;28;20040;-67
2023/01/24 06:40:08;;;;;;;22.15;13.38;;;;;;;-3.53;88.23;103381.66;5091522;28;20040;-67
2023/01/24 06:42:35;;;;;;;25.17;12.02;;;;;;;-3.56;88.46;103386.91;5092103;28;20044;-67
2023/01/24 06:45:01;;;;;;;20.40;12.23;;;;;;;-3.48;87.98;103386.00;5089681;28;20043;-68
2023/01/24 06:47:28;;;;;;;23.77;13.45;;;;;;;-3.54;87.43;103393.03;5091813;28;20138;-69
2023/01/24 06:49:54;;;;;;;21.73;12.23;;;;;;;-3.47;87.61;103401.75;5092003;28;20044;-69
2023/01/24 06:52:21;;;;;;;29.17;13.50;;;;;;;-3.57;88.08;103395.66;5093008;28;20052;-69
2023/01/24 06:54:47;;;;;;;23.55;12.63;;;;;;;-3.46;87.13;103405.25;5092479;28;20048;-68
2023/01/24 06:57:14;;;;;;;21.98;12.80;;;;;;;-3.49;86.96;103402.63;5091776;28;20051;-68
2023/01/24 06:59:40;;;;;;;24.70;12.70;;;;;;;-3.54;87.04;103403.53;5092323;28;20056;-68
2023/01/24 07:02:09;;;;;;;24.27;13.52;;;;;;;-3.44;86.41;103401.75;5093039;28;20044;-69
2023/01/24 07:04:36;;;;;;;24.70;12.95;;;;;;;-3.54;87.08;103410.53;5080226;28;20411;-67
2023/01/24 07:07:05;;;;;;;28.85;13.45;;;;;;;-3.45;86.42;103410.50;5075738;28;20044;-69
2023/01/24 07:09:32;;;;;;;26.80;13.85;;;;;;;-3.53;86.42;103409.66;5077680;28;20492;-67
2023/01/24 07:11:59;;;;;;;25.52;13.27;;;;;;;-3.56;86.41;103417.53;5096552;28;20043;-69
2023/01/24 07:14:25;;;;;;;24.08;12.82;;;;;;;-3.61;87.55;103422.78;5079082;28;20044;-68
2023/01/24 07:16:52;;;;;;;29.42;13.73;;;;;;;-3.54;86.62;103429.78;5096243;28;20058;-69
2023/01/24 07:19:26;;;;;;;33.20;13.30;;;;;;;-3.54;87.13;103427.16;5096716;28;20054;-69
2023/01/24 07:21:56;;;;;;;28.98;13.70;;;;;;;-3.55;86.21;103429.75;5094414;28;20503;-70
2023/01/24 07:24:25;;;;;;;30.55;14.25;;;;;;;-3.61;86.33;103432.41;5097567;28;20169;-68
2023/01/24 07:26:53;;;;;;;27.73;13.07;;;;;;;-3.60;86.18;103428.91;5096644;28;20068;-70
2023/01/24 07:29:21;;;;;;;35.10;14.23;;;;;;;-3.60;87.00;103435.03;5095433;28;20119;-68
2023/01/24 07:31:48;;;;;;;39.47;14.52;;;;;;;-3.53;86.80;103430.63;5093524;28;20052;-69
2023/01/24 07:34:17;;;;;;;37.42;16.13;;;;;;;-3.58;86.75;103442.91;5095197;28;20043;-69
2023/01/24 07:36:47;;;;;;;39.55;15.52;;;;;;;-3.52;86.59;103440.25;5094592;28;20939;-67
2023/01/24 07:39:14;;;;;;;41.22;15.63;;;;;;;-3.55;85.78;103442.88;5096507;28;20055;-69
2023/01/24 07:41:45;;;;;;;40.17;15.63;;;;;;;-3.52;87.06;103442.88;5095103;28;20116;-70
2023/01/24 07:44:13;;;;;;;47.88;17.25;;;;;;;-3.49;86.73;103439.38;5088508;28;20044;-68
2023/01/24 07:46:40;;;;;;;43.58;16.85;;;;;;;-3.49;86.28;103431.50;5074351;28;20071;-68
2023/01/24 07:49:06;;;;;;;43.13;16.02;;;;;;;-3.48;85.20;103436.78;5075821;28;20091;-69
2023/01/24 07:51:33;;;;;;;41.95;17.48;;;;;;;-3.48;85.24;103431.53;5090733;28;20040;-70
2023/01/24 07:53:59;;;;;;;47.92;17.83;;;;;;;-3.47;85.70;103424.53;5096889;28;20059;-69
2023/01/24 07:56:26;;;;;;;45.70;17.92;;;;;;;-3.45;85.13;103423.63;5094705;28;20048;-69
2023/01/24 07:58:53;;;;;;;47.97;17.35;;;;;;;-3.46;86.60;103421.00;5096816;28;20048;-70
2023/01/24 08:01:20;;;;;;;42.35;17.30;;;;;;;-3.34;85.85;103431.50;5097480;28;20044;-69
2023/01/24 08:03:47;;;;;;;53.08;18.50;;;;;;;-3.37;85.43;103429.75;5102841;28;20056;-70
2023/01/24 08:06:13;;;;;;;52.10;19.00;;;;;;;-3.32;85.72;103441.09;5096534;28;20453;-69
2023/01/24 08:08:40;;;;;;;61.90;18.67;;;;;;;-3.30;85.60;103439.34;5096443;28;20058;-69
2023/01/24 08:11:10;;;;;;;49.47;17.80;;;;;;;-3.24;85.20;103443.69;5097486;28;20440;-66
2023/01/24 08:13:37;;;;;;;49.55;17.58;;;;;;;-3.26;84.97;103444.59;5096688;28;20039;-65
2023/01/24 08:16:04;;;;;;;51.33;19.00;;;;;;;-3.17;83.75;103447.16;5097016;28;20040;-70
2023/01/24 08:18:30;;;;;;;58.38;18.75;;;;;;;-3.17;84.67;103450.69;5097113;28;20040;-69
2023/01/24 08:20:57;;;;;;;59.17;18.77;;;;;;;-3.28;85.86;103457.69;5095729;28;20062;-70
2023/01/24 08:23:23;;;;;;;51.15;19.70;;;;;;;-3.25;85.12;103460.31;5092470;28;20086;-70
2023/01/24 08:25:50;;;;;;;62.22;20.85;;;;;;;-3.19;85.04;103456.81;5097037;28;20507;-70
2023/01/24 08:28:17;;;;;;;53.70;18.48;;;;;;;-3.17;85.02;103447.16;5096030;28;20043;-70
2023/01/24 08:30:44;;;;;;;62.17;21.20;;;;;;;-3.18;85.06;103451.56;5095223;28;20052;-68
2023/01/24 08:33:17;;;;;;;60.05;20.30;;;;;;;-3.11;84.32;103449.78;5096488;28;20054;-69
2023/01/24 08:35:44;;;;;;;57.80;18.67;;;;;;;-3.16;84.62;103451.56;5097387;28;20155;-68
2023/01/24 08:38:15;;;;;;;61.15;21.13;;;;;;;-3.16;84.50;103447.19;5097497;28;20175;-69
2023/01/24 08:40:43;;;;;;;56.75;21.10;;;;;;;-3.05;84.61;103455.03;5096631;28;20054;-69
2023/01/24 08:43:16;;;;;;;64.47;21.98;;;;;;;-3.04;83.88;103451.50;5097212;28;20435;-69
2023/01/24 08:45:43;;;;;;;61.33;21.83;;;;;;;-3.16;84.26;103444.56;5096463;28;20116;-68
2023/01/24 08:48:09;;;;;;;62.85;21.42;;;;;;;-3.11;84.91;103448.03;5097289;28;20048;-68
2023/01/24 08:50:37;;;;;;;59.72;20.73;;;;;;;-3.00;84.39;103453.25;5097961;28;20059;-69
2023/01/24 08:53:04;;;;;;;64.25;22.40;;;;;;;-3.10;84.39;103443.66;5097471;28;20057;-69
2023/01/24 08:55:30;;;;;;;70.38;23.10;;;;;;;-3.14;84.07;103444.53;5097135;28;20063;-69
2023/01/24 08:58:02;;;;;;;66.85;22.80;;;;;;;-3.25;84.51;103447.19;5097010;28;20043;-70
2023/01/24 09:00:29;;;;;;;69.22;21.85;;;;;;;-3.24;85.40;103450.69;5097436;28;20487;-68
2023/01/24 09:03:00;;;;;;;73.18;24.38;;;;;;;-3.37;85.22;103450.75;5096190;28;20127;-70
2023/01/24 09:05:28;;;;;;;75.32;25.42;;;;;;;-3.30;86.13;103447.22;5096832;28;20043;-69
2023/01/24 09:07:55;;;;;;;79.90;24.15;;;;;;;-3.32;85.43;103453.34;5091346;28;20048;-71
2023/01/24 09:10:22;;;;;;;83.05;25.10;;;;;;;-3.33;86.03;103448.97;5076064;28;20384;-70
2023/01/24 09:12:48;;;;;;;84.18;25.50;;;;;;;-3.37;86.17;103453.38;5077141;28;20067;-71
2023/01/24 09:15:15;;;;;;;78.90;25.15;;;;;;;-3.31;86.23;103458.59;5094843;28;20064;-70
2023/01/24 09:17:42;;;;;;;82.40;25.92;;;;;;;-3.27;86.00;103462.09;5096126;28;20044;-69
2023/01/24 09:20:09;;;;;;;90.25;26.90;;;;;;;-3.24;85.75;103455.94;5095571;28;20400;-67
2023/01/24 09:22:35;;;;;;;81.63;25.67;;;;;;;-3.21;86.30;103451.56;5096915;28;20043;-70
2023/01/24 09:25:03;;;;;;;84.63;25.25;;;;;;;-3.19;85.31;103455.06;5095576;28;20478;-70
2023/01/24 09:27:30;;;;;;;86.90;27.55;;;;;;;-3.22;85.85;103459.44;5095185;28;20049;-69
2023/01/24 09:29:56;;;;;;;84.43;25.73;;;;;;;-3.24;85.81;103458.56;5095406;28;20047;-71
2023/01/24 09:32:23;;;;;;;79.57;26.27;;;;;;;-3.16;86.04;103460.31;5095876;28;20050;-69
2023/01/24 09:34:49;;;;;;;83.47;26.23;;;;;;;-3.11;86.19;103461.16;5075741;28;20055;-70
2023/01/24 09:37:18;;;;;;;82.63;26.30;;;;;;;-3.01;84.67;103448.88;5093272;28;20054;-71
2023/01/24 09:39:45;;;;;;;83.35;25.42;;;;;;;-3.10;84.72;103462.94;5093934;28;20047;-69
2023/01/24 09:42:29;;;;;;;68.43;25.02;;;;;;;-2.97;84.11;103463.75;5093215;28;20074;-71
2023/01/24 09:45:12;;;;;;;74.75;25.10;;;;;;;-2.97;84.45;103461.09;5092413;28;20048;-71
2023/01/24 09:47:55;;;;;;;79.78;25.00;;;;;;;-2.96;84.87;103459.34;5091698;28;20118;-68
2023/01/24 09:50:31;;;;;;;93.55;26.40;;;;;;;-2.89;83.96;103461.06;5092425;28;20048;-70
2023/01/24 09:52:58;;;;;;;96.18;27.80;;;;;;;-2.83;84.06;103455.81;5093712;28;20054;-70
2023/01/24 09:55:41;;;;;;;87.38;28.25;;;;;;;-2.83;84.25;103446.16;5093267;28;20047;-68
2023/01/24 09:58:31;;;;;;;86.13;27.27;;;;;;;-2.71;84.04;103449.63;5094134;28;20040;-68
2023/01/24 10:01:00;;;;;;;102.53;28.88;;;;;;;-2.65;83.61;103452.22;5093842;28;20040;-70
2023/01/24 10:03:27;;;;;;;91.10;28.27;;;;;;;-2.64;83.17;103452.22;5094868;28;20051;-69
2023/01/24 10:05:58;;;;;;;94.90;30.58;;;;;;;-2.62;83.11;103450.44;5095477;28;20048;-69
2023/01/24 10:08:37;;;;;;;89.70;28.33;;;;;;;-2.68;82.42;103444.38;5093627;28;20412;-68
2023/01/24 10:11:45;;;;;;;114.40;32.88;;;;;;;-2.68;82.61;103439.13;5095098;28;20066;-70
2023/01/24 10:14:39;;;;;;;110.82;32.20;;;;;;;-2.51;81.94;103437.25;5031539;28;20056;-70
2023/01/24 10:17:16;;;;;;;97.07;30.40;;;;;;;-2.44;81.66;103425.81;5030903;28;20433;-70
2023/01/24 10:19:59;;;;;;;101.65;32.25;;;;;;;-2.26;80.62;103418.69;5030953;28;20049;-71
2023/01/24 10:22:31;;;;;;;116.28;33.72;;;;;;;-2.29;80.11;103418.72;5030891;28;20124;-69
2023/01/24 10:25:14;;;;;;;102.57;31.83;;;;;;;-2.23;79.64;103418.69;5029216;28;20068;-69
2023/01/24 10:27:45;;;;;;;115.22;34.70;;;;;;;-2.42;80.55;103410.03;5029587;28;20361;-67
2023/01/24 10:30:21;;;;;;;110.93;33.85;;;;;;;-2.33;80.47;103410.84;5015808;28;20133;-68
2023/01/24 10:32:54;;;;;;;119.68;33.47;;;;;;;-2.17;79.83;103411.59;5020587;28;20469;-69
2023/01/24 10:35:30;;;;;;;116.75;32.42;;;;;;;-2.33;80.97;103412.59;5028270;28;20446;-69
2023/01/24 10:38:00;;;;;;;112.03;32.42;;;;;;;-2.11;80.34;103411.56;5030716;28;20051;-70
2023/01/24 10:40:26;;;;;;;115.88;33.78;;;;;;;-2.10;79.59;103408.06;5036106;28;20105;-70
2023/01/24 10:42:53;;;;;;;118.88;33.45;;;;;;;-2.15;78.40;103404.56;5036180;28;20045;-69
2023/01/24 10:45:42;;;;;;;133.02;35.40;;;;;;;-2.19;78.92;103420.41;5033649;28;20383;-70
2023/01/24 10:48:42;;;;;;;121.47;34.10;;;;;;;-2.25;79.54;103412.56;5054127;28;20044;-70
2023/01/24 10:51:18;;;;;;;111.38;33.08;;;;;;;-2.35;81.13;103417.00;5075500;28;20041;-69
2023/01/24 10:53:45;;;;;;;108.93;32.70;;;;;;;-2.24;80.96;103420.41;5076992;28;20499;-70
2023/01/24 10:56:14;;;;;;;112.10;33.20;;;;;;;-2.21;80.18;103412.50;5076177;28;20063;-70
2023/01/24 10:58:56;;;;;;;127.40;33.63;;;;;;;-2.20;79.55;103419.53;5076154;28;20048;-69
2023/01/24 11:01:35;;;;;;;103.07;32.03;;;;;;;-2.23;80.04;103406.41;5092919;28;20055;-70
2023/01/24 11:04:20;;;;;;;108.53;32.42;;;;;;;-2.18;80.31;103407.22;5097452;28;20040;-70
2023/01/24 11:06:50;;;;;;;108.90;33.45;;;;;;;-2.11;80.07;103415.94;5096300;28;20122;-70
2023/01/24 11:09:20;;;;;;;118.78;34.03;;;;;;;-2.15;79.57;103414.22;5097305;28;20050;-70
2023/01/24 11:11:51;;;;;;;116.55;34.45;;;;;;;-2.12;80.57;103414.22;5097098;28;20442;-68
2023/01/24 11:14:21;;;;;;;123.95;35.33;;;;;;;-2.14;80.89;103415.97;5097858;28;20044;-69
2023/01/24 11:16:54;;;;;;;115.32;33.85;;;;;;;-2.01;79.54;103414.97;5080055;28;20062;-69
2023/01/24 11:19:31;;;;;;;106.28;33.42;;;;;;;-2.14;79.35;103408.06;5097719;28;20055;-70
2023/01/24 11:22:22;;;;;;;124.72;35.70;;;;;;;-2.08;79.39;103405.41;5098039;28;20051;-70
2023/01/24 11:24:50;;;;;;;124.50;34.53;;;;;;;-2.09;79.30;103406.28;5098048;28;20454;-70
2023/01/24 11:27:21;;;;;;;107.10;32.17;;;;;;;-2.14;80.19;103401.03;5097670;28;20411;-69
2023/01/24 11:30:13;;;;;;;116.15;34.25;;;;;;;-2.09;80.74;103403.66;5096834;28;20055;-68
2023/01/24 11:33:11;;;;;;;116.32;32.60;;;;;;;-2.05;79.79;103399.25;5075693;28;20574;-69
2023/01/24 11:35:44;;;;;;;117.05;33.75;;;;;;;-1.96;79.24;103396.50;5076653;28;20040;-70
2023/01/24 11:38:13;;;;;;;122.32;36.40;;;;;;;-1.98;79.80;103400.94;5076217;28;20044;-70
2023/01/24 11:40:52;;;;;;;113.43;34.08;;;;;;;-1.97;79.12;103400.03;5076624;28;20143;-70
2023/01/24 11:44:10;;;;;;;124.50;35.33;;;;;;;-1.98;79.12;103396.53;5076692;28;20055;-68
2023/01/24 11:46:56;;;;;;;114.45;34.35;;;;;;;-2.13;80.32;103394.94;5042741;28;20040;-70
2023/01/24 11:49:41;;;;;;;105.20;33.15;;;;;;;-2.01;80.51;103386.03;5074776;28;20480;-71
2023/01/24 11:52:44;;;;;;;123.53;34.15;;;;;;;-1.96;79.80;103394.75;5073485;28;20047;-70
2023/01/24 11:55:20;;;;;;;118.18;35.17;;;;;;;-2.01;78.63;103391.31;5072832;28;20036;-69
2023/01/24 11:58:04;;;;;;;108.47;32.60;;;;;;;-2.21;79.64;103378.31;5071341;28;20075;-69
2023/01/24 12:00:44;;;;;;;115.22;32.63;;;;;;;-2.07;79.82;103387.84;5072079;28;20052;-71